Insula Oya 2 — FUKI — position and weather

sailwx.info

Track history (hours):
 
Tides and Currents Weather Stations Pressure Air Temp Water Temp Dewpoint Dewpoint Depression Visibility Wind Speed Wind Dir Waves Ship Positions

Insula Oya 2

Last reported at 2017-Aug-18 10:57 UTC. Time now 2017-Aug-18 14:20 UTC.
Position N 46°54' W 002°11'.

Length 50 m; draft 2.4 m.

Type: Passenger vessel. MMSI: 227004900.

Date/timePositionNaut miles runAvg speedWind from/ knotsBaromVisibWave heightAir tempDewpointWater temp
2017-Aug-18 10:57N 46°54' W 002°11'2 3.4
2017-Aug-18 10:28N 46°54' W 002°08'0 0.0
2017-Aug-17 14:18N 46°54' W 002°08'2 6.7
2017-Aug-17 13:59N 46°53' W 002°11'0 0.1
2017-Aug-17 09:46N 46°53' W 002°11'2 6.2
2017-Aug-17 09:29N 46°54' W 002°08'0 0.0
2017-Aug-17 09:00N 46°54' W 002°08'0 0.0
2017-Aug-17 08:30N 46°54' W 002°08'0 0.0
2017-Aug-17 08:00N 46°54' W 002°08'0 0.0
2017-Aug-16 12:46N 46°54' W 002°08'911.3
2017-Aug-16 12:00N 46°47' W 002°17'5 7.9
2017-Aug-16 11:25N 46°44' W 002°21'0 0.0
2017-Aug-16 10:50N 46°44' W 002°21'0 0.0
2017-Aug-16 10:30N 46°44' W 002°21'0 0.0
2017-Aug-16 10:00N 46°44' W 002°21'5 4.6
2017-Aug-16 08:50N 46°48' W 002°16'413.2
2017-Aug-16 08:30N 46°52' W 002°13'4 0.3
2017-Aug-15 19:57N 46°54' W 002°08'11 0.3
2017-Aug-14 06:50N 46°46' W 002°19'513.6
2017-Aug-14 06:28N 46°50' W 002°15'511.4
2017-Aug-14 06:00N 46°54' W 002°09'0 0.7
2017-Aug-14 05:30N 46°54' W 002°08'0 0.0
2017-Aug-14 05:00N 46°54' W 002°08'0 0.0
2017-Aug-14 04:30N 46°54' W 002°08'0 0.0
2017-Aug-14 04:00N 46°54' W 002°08'0 0.0
2017-Aug-14 03:30N 46°54' W 002°08'0 0.0
2017-Aug-14 03:00N 46°54' W 002°08'0 0.0
2017-Aug-14 02:30N 46°54' W 002°08'0 0.0
2017-Aug-14 02:00N 46°54' W 002°08'0 0.0
2017-Aug-14 01:30N 46°54' W 002°08'0 0.0
2017-Aug-14 01:00N 46°54' W 002°08'0 0.0
2017-Aug-14 00:30N 46°54' W 002°08'0 0.0
2017-Aug-14 00:00N 46°54' W 002°08'0 0.0
2017-Aug-13 23:30N 46°54' W 002°08'0 0.0
2017-Aug-13 23:00N 46°54' W 002°08'0 0.0
2017-Aug-13 22:30N 46°54' W 002°08'0 0.0
2017-Aug-13 22:00N 46°54' W 002°08'0 0.0
2017-Aug-13 21:30N 46°54' W 002°08'0 0.0
2017-Aug-13 21:00N 46°54' W 002°08'0 0.0
2017-Aug-13 20:30N 46°54' W 002°08'0 0.0
2017-Aug-13 20:00N 46°54' W 002°08'0 0.0
2017-Aug-13 19:30N 46°54' W 002°08'0 0.0
2017-Aug-13 19:00N 46°54' W 002°08'0 0.0
2017-Aug-13 18:30N 46°54' W 002°08'0 0.0
2017-Aug-13 18:00N 46°54' W 002°08'2 0.1
2017-Aug-12 05:29N 46°53' W 002°11'2 4.0
2017-Aug-12 05:00N 46°54' W 002°08'0 0.0
2017-Aug-12 04:30N 46°54' W 002°08'0 0.0
2017-Aug-12 03:57N 46°54' W 002°08'0 0.0
2017-Aug-12 03:21N 46°54' W 002°08'0 0.0
2017-Aug-12 02:54N 46°54' W 002°08'0 0.0
2017-Aug-12 02:30N 46°54' W 002°08'0 0.0
2017-Aug-12 02:00N 46°54' W 002°08'0 0.0
2017-Aug-12 01:27N 46°54' W 002°08'0 0.0
2017-Aug-12 01:00N 46°54' W 002°08'0 0.0
2017-Aug-12 00:30N 46°54' W 002°08'0 0.0
2017-Aug-11 23:57N 46°54' W 002°08'0 0.0
2017-Aug-11 23:30N 46°54' W 002°08'0 0.0
2017-Aug-11 23:00N 46°54' W 002°08'0 0.0
2017-Aug-11 22:30N 46°54' W 002°08'0 0.0
2017-Aug-11 22:00N 46°54' W 002°08'0 0.0
2017-Aug-11 21:27N 46°54' W 002°08'0 0.0
2017-Aug-11 21:00N 46°54' W 002°08'0 0.0
2017-Aug-11 20:24N 46°54' W 002°08'0 0.0
2017-Aug-11 19:57N 46°54' W 002°08'0 0.0
2017-Aug-11 19:21N 46°54' W 002°08'0 0.0
2017-Aug-11 19:00N 46°54' W 002°08'0 0.0
2017-Aug-11 18:30N 46°54' W 002°08'0 0.0
2017-Aug-11 16:26N 46°54' W 002°08'2 0.2
2017-Aug-11 07:10N 46°54' W 002°11'210.9
2017-Aug-11 07:01N 46°54' W 002°08'0 0.0
2017-Aug-11 06:30N 46°54' W 002°08'0 0.0
2017-Aug-11 06:01N 46°54' W 002°08'0 0.0
2017-Aug-11 05:30N 46°54' W 002°08'1 3.0
2017-Aug-11 05:00N 46°54' W 002°10'712.8
2017-Aug-11 04:29N 46°48' W 002°16'4 0.4
2017-Aug-10 18:01N 46°45' W 002°20'214.2
2017-Aug-10 17:53N 46°46' W 002°18'514.0
2017-Aug-10 17:30N 46°51' W 002°14'5 9.6
2017-Aug-10 17:00N 46°54' W 002°08'0 0.0
2017-Aug-10 16:30N 46°54' W 002°08'0 0.0
2017-Aug-10 16:00N 46°54' W 002°08'2 3.4
2017-Aug-10 15:30N 46°53' W 002°11'0 0.0
2017-Aug-10 06:45N 46°53' W 002°11'2 7.9
2017-Aug-10 06:31N 46°54' W 002°08'0 0.0
2017-Aug-10 06:00N 46°54' W 002°08'0 0.0
2017-Aug-10 05:30N 46°54' W 002°08'0 0.0
2017-Aug-10 05:00N 46°54' W 002°08'0 0.0
2017-Aug-10 04:30N 46°54' W 002°08'0 0.0
2017-Aug-10 04:00N 46°54' W 002°08'0 0.0
2017-Aug-10 03:30N 46°54' W 002°08'0 0.0
2017-Aug-10 03:00N 46°54' W 002°08'0 0.0
2017-Aug-10 02:30N 46°54' W 002°08'0 0.0
2017-Aug-10 02:00N 46°54' W 002°08'0 0.0
2017-Aug-10 01:30N 46°54' W 002°08'0 0.0
2017-Aug-10 01:00N 46°54' W 002°08'0 0.0
2017-Aug-10 00:30N 46°54' W 002°08'0 0.0
2017-Aug-10 00:00N 46°54' W 002°08'0 0.0
2017-Aug-09 23:30N 46°54' W 002°08'0 0.0
2017-Aug-09 23:00N 46°54' W 002°08'0 0.0
2017-Aug-09 22:30N 46°54' W 002°08'0 0.0
2017-Aug-09 22:00N 46°54' W 002°08'0 0.0
2017-Aug-09 21:30N 46°54' W 002°08'0 0.0
2017-Aug-09 21:00N 46°54' W 002°08'0 0.0
2017-Aug-09 20:30N 46°54' W 002°08'0 0.0
2017-Aug-09 20:00N 46°54' W 002°08'0 0.0
2017-Aug-09 19:30N 46°54' W 002°08'0 0.0
2017-Aug-09 19:00N 46°54' W 002°08'0 0.0
2017-Aug-09 18:29N 46°54' W 002°08'0 0.0
2017-Aug-09 18:00N 46°54' W 002°08'0 0.0
2017-Aug-09 17:29N 46°54' W 002°08'0 0.0
2017-Aug-09 17:00N 46°54' W 002°08'0 0.0
2017-Aug-09 16:29N 46°54' W 002°08'0 0.0
2017-Aug-09 16:00N 46°54' W 002°08'0 0.0
2017-Aug-09 15:30N 46°54' W 002°08'2 3.2
2017-Aug-09 14:59N 46°54' W 002°11'5 0.6
2017-Aug-09 06:37N 46°49' W 002°15'213.9
2017-Aug-09 06:28N 46°51' W 002°14'4 9.5
2017-Aug-09 06:00N 46°54' W 002°08'0 0.0
2017-Aug-09 05:29N 46°54' W 002°08'0 0.0
2017-Aug-09 04:36N 46°54' W 002°08'0 0.0
2017-Aug-09 04:15N 46°54' W 002°08'0 0.0
2017-Aug-09 04:00N 46°54' W 002°08'0 0.0
2017-Aug-09 03:09N 46°54' W 002°08'0 0.0
2017-Aug-09 02:57N 46°54' W 002°08'0 0.0
2017-Aug-09 02:27N 46°54' W 002°08'0 0.0
2017-Aug-09 01:24N 46°54' W 002°08'0 0.0
2017-Aug-09 01:00N 46°54' W 002°08'0 0.0
2017-Aug-09 00:30N 46°54' W 002°08'0 0.0
2017-Aug-09 00:00N 46°54' W 002°08'0 0.0
2017-Aug-08 23:30N 46°54' W 002°08'0 0.0
2017-Aug-08 23:00N 46°54' W 002°08'0 0.0
2017-Aug-08 22:30N 46°54' W 002°08'0 0.0
2017-Aug-08 22:00N 46°54' W 002°08'0 0.0
2017-Aug-08 21:30N 46°54' W 002°08'0 0.0
2017-Aug-08 21:00N 46°54' W 002°08'0 0.0
2017-Aug-08 20:30N 46°54' W 002°08'0 0.0
2017-Aug-08 19:54N 46°54' W 002°08'0 0.0
2017-Aug-08 19:30N 46°54' W 002°08'0 0.0
2017-Aug-08 18:57N 46°54' W 002°08'0 0.0
2017-Aug-08 18:24N 46°54' W 002°08'0 0.0
2017-Aug-08 17:51N 46°54' W 002°08'0 0.0
2017-Aug-08 17:27N 46°54' W 002°08'0 0.0
2017-Aug-08 16:54N 46°54' W 002°08'0 0.0
2017-Aug-08 16:06N 46°54' W 002°08'0 0.0
2017-Aug-08 15:57N 46°54' W 002°08'0 0.0
2017-Aug-08 15:21N 46°54' W 002°08'0 0.0
2017-Aug-08 14:51N 46°54' W 002°08'1 3.8
2017-Aug-08 14:29N 46°54' W 002°10'  
Track history (hours):
 
Tides and Currents Weather Stations Pressure Air Temp Water Temp Dewpoint Dewpoint Depression Visibility Wind Speed Wind Dir Waves Ship Positions

Insula Oya 2

Last reported at 2017-Aug-18 10:57 UTC. Time now 2017-Aug-18 14:20 UTC.
Position N 46°54' W 002°11'.

Length 50 m; draft 2.4 m.

Type: Passenger vessel. MMSI: 227004900.

Date/timePositionNaut miles runAvg speedWind from/ knotsBaromVisibWave heightAir tempDewpointWater temp
2017-Aug-18 10:57N 46°54' W 002°11'2 3.4
2017-Aug-18 10:28N 46°54' W 002°08'0 0.0
2017-Aug-17 14:18N 46°54' W 002°08'2 6.7
2017-Aug-17 13:59N 46°53' W 002°11'0 0.1
2017-Aug-17 09:46N 46°53' W 002°11'2 6.2
2017-Aug-17 09:29N 46°54' W 002°08'0 0.0
2017-Aug-17 09:00N 46°54' W 002°08'0 0.0
2017-Aug-17 08:30N 46°54' W 002°08'0 0.0
2017-Aug-17 08:00N 46°54' W 002°08'0 0.0
2017-Aug-16 12:46N 46°54' W 002°08'911.3
2017-Aug-16 12:00N 46°47' W 002°17'5 7.9
2017-Aug-16 11:25N 46°44' W 002°21'0 0.0
2017-Aug-16 10:50N 46°44' W 002°21'0 0.0
2017-Aug-16 10:30N 46°44' W 002°21'0 0.0
2017-Aug-16 10:00N 46°44' W 002°21'5 4.6
2017-Aug-16 08:50N 46°48' W 002°16'413.2
2017-Aug-16 08:30N 46°52' W 002°13'4 0.3
2017-Aug-15 19:57N 46°54' W 002°08'11 0.3
2017-Aug-14 06:50N 46°46' W 002°19'513.6
2017-Aug-14 06:28N 46°50' W 002°15'511.4
2017-Aug-14 06:00N 46°54' W 002°09'0 0.7
2017-Aug-14 05:30N 46°54' W 002°08'0 0.0
2017-Aug-14 05:00N 46°54' W 002°08'0 0.0
2017-Aug-14 04:30N 46°54' W 002°08'0 0.0
2017-Aug-14 04:00N 46°54' W 002°08'0 0.0
2017-Aug-14 03:30N 46°54' W 002°08'0 0.0
2017-Aug-14 03:00N 46°54' W 002°08'0 0.0
2017-Aug-14 02:30N 46°54' W 002°08'0 0.0
2017-Aug-14 02:00N 46°54' W 002°08'0 0.0
2017-Aug-14 01:30N 46°54' W 002°08'0 0.0
2017-Aug-14 01:00N 46°54' W 002°08'0 0.0
2017-Aug-14 00:30N 46°54' W 002°08'0 0.0
2017-Aug-14 00:00N 46°54' W 002°08'0 0.0
2017-Aug-13 23:30N 46°54' W 002°08'0 0.0
2017-Aug-13 23:00N 46°54' W 002°08'0 0.0
2017-Aug-13 22:30N 46°54' W 002°08'0 0.0
2017-Aug-13 22:00N 46°54' W 002°08'0 0.0
2017-Aug-13 21:30N 46°54' W 002°08'0 0.0
2017-Aug-13 21:00N 46°54' W 002°08'0 0.0
2017-Aug-13 20:30N 46°54' W 002°08'0 0.0
2017-Aug-13 20:00N 46°54' W 002°08'0 0.0
2017-Aug-13 19:30N 46°54' W 002°08'0 0.0
2017-Aug-13 19:00N 46°54' W 002°08'0 0.0
2017-Aug-13 18:30N 46°54' W 002°08'0 0.0
2017-Aug-13 18:00N 46°54' W 002°08'2 0.1
2017-Aug-12 05:29N 46°53' W 002°11'2 4.0
2017-Aug-12 05:00N 46°54' W 002°08'0 0.0
2017-Aug-12 04:30N 46°54' W 002°08'0 0.0
2017-Aug-12 03:57N 46°54' W 002°08'0 0.0
2017-Aug-12 03:21N 46°54' W 002°08'0 0.0
2017-Aug-12 02:54N 46°54' W 002°08'0 0.0
2017-Aug-12 02:30N 46°54' W 002°08'0 0.0
2017-Aug-12 02:00N 46°54' W 002°08'0 0.0
2017-Aug-12 01:27N 46°54' W 002°08'0 0.0
2017-Aug-12 01:00N 46°54' W 002°08'0 0.0
2017-Aug-12 00:30N 46°54' W 002°08'0 0.0
2017-Aug-11 23:57N 46°54' W 002°08'0 0.0
2017-Aug-11 23:30N 46°54' W 002°08'0 0.0
2017-Aug-11 23:00N 46°54' W 002°08'0 0.0
2017-Aug-11 22:30N 46°54' W 002°08'0 0.0
2017-Aug-11 22:00N 46°54' W 002°08'0 0.0
2017-Aug-11 21:27N 46°54' W 002°08'0 0.0
2017-Aug-11 21:00N 46°54' W 002°08'0 0.0
2017-Aug-11 20:24N 46°54' W 002°08'0 0.0
2017-Aug-11 19:57N 46°54' W 002°08'0 0.0
2017-Aug-11 19:21N 46°54' W 002°08'0 0.0
2017-Aug-11 19:00N 46°54' W 002°08'0 0.0
2017-Aug-11 18:30N 46°54' W 002°08'0 0.0
2017-Aug-11 16:26N 46°54' W 002°08'2 0.2
2017-Aug-11 07:10N 46°54' W 002°11'210.9
2017-Aug-11 07:01N 46°54' W 002°08'0 0.0
2017-Aug-11 06:30N 46°54' W 002°08'0 0.0
2017-Aug-11 06:01N 46°54' W 002°08'0 0.0
2017-Aug-11 05:30N 46°54' W 002°08'1 3.0
2017-Aug-11 05:00N 46°54' W 002°10'712.8
2017-Aug-11 04:29N 46°48' W 002°16'4 0.4
2017-Aug-10 18:01N 46°45' W 002°20'214.2
2017-Aug-10 17:53N 46°46' W 002°18'514.0
2017-Aug-10 17:30N 46°51' W 002°14'5 9.6
2017-Aug-10 17:00N 46°54' W 002°08'0 0.0
2017-Aug-10 16:30N 46°54' W 002°08'0 0.0
2017-Aug-10 16:00N 46°54' W 002°08'2 3.4
2017-Aug-10 15:30N 46°53' W 002°11'0 0.0
2017-Aug-10 06:45N 46°53' W 002°11'2 7.9
2017-Aug-10 06:31N 46°54' W 002°08'0 0.0
2017-Aug-10 06:00N 46°54' W 002°08'0 0.0
2017-Aug-10 05:30N 46°54' W 002°08'0 0.0
2017-Aug-10 05:00N 46°54' W 002°08'0 0.0
2017-Aug-10 04:30N 46°54' W 002°08'0 0.0
2017-Aug-10 04:00N 46°54' W 002°08'0 0.0
2017-Aug-10 03:30N 46°54' W 002°08'0 0.0
2017-Aug-10 03:00N 46°54' W 002°08'0 0.0
2017-Aug-10 02:30N 46°54' W 002°08'0 0.0
2017-Aug-10 02:00N 46°54' W 002°08'0 0.0
2017-Aug-10 01:30N 46°54' W 002°08'0 0.0
2017-Aug-10 01:00N 46°54' W 002°08'0 0.0
2017-Aug-10 00:30N 46°54' W 002°08'0 0.0
2017-Aug-10 00:00N 46°54' W 002°08'0 0.0
2017-Aug-09 23:30N 46°54' W 002°08'0 0.0
2017-Aug-09 23:00N 46°54' W 002°08'0 0.0
2017-Aug-09 22:30N 46°54' W 002°08'0 0.0
2017-Aug-09 22:00N 46°54' W 002°08'0 0.0
2017-Aug-09 21:30N 46°54' W 002°08'0 0.0
2017-Aug-09 21:00N 46°54' W 002°08'0 0.0
2017-Aug-09 20:30N 46°54' W 002°08'0 0.0
2017-Aug-09 20:00N 46°54' W 002°08'0 0.0
2017-Aug-09 19:30N 46°54' W 002°08'0 0.0
2017-Aug-09 19:00N 46°54' W 002°08'0 0.0
2017-Aug-09 18:29N 46°54' W 002°08'0 0.0
2017-Aug-09 18:00N 46°54' W 002°08'0 0.0
2017-Aug-09 17:29N 46°54' W 002°08'0 0.0
2017-Aug-09 17:00N 46°54' W 002°08'0 0.0
2017-Aug-09 16:29N 46°54' W 002°08'0 0.0
2017-Aug-09 16:00N 46°54' W 002°08'0 0.0
2017-Aug-09 15:30N 46°54' W 002°08'2 3.2
2017-Aug-09 14:59N 46°54' W 002°11'5 0.6
2017-Aug-09 06:37N 46°49' W 002°15'213.9
2017-Aug-09 06:28N 46°51' W 002°14'4 9.5
2017-Aug-09 06:00N 46°54' W 002°08'0 0.0
2017-Aug-09 05:29N 46°54' W 002°08'0 0.0
2017-Aug-09 04:36N 46°54' W 002°08'0 0.0
2017-Aug-09 04:15N 46°54' W 002°08'0 0.0
2017-Aug-09 04:00N 46°54' W 002°08'0 0.0
2017-Aug-09 03:09N 46°54' W 002°08'0 0.0
2017-Aug-09 02:57N 46°54' W 002°08'0 0.0
2017-Aug-09 02:27N 46°54' W 002°08'0 0.0
2017-Aug-09 01:24N 46°54' W 002°08'0 0.0
2017-Aug-09 01:00N 46°54' W 002°08'0 0.0
2017-Aug-09 00:30N 46°54' W 002°08'0 0.0
2017-Aug-09 00:00N 46°54' W 002°08'0 0.0
2017-Aug-08 23:30N 46°54' W 002°08'0 0.0
2017-Aug-08 23:00N 46°54' W 002°08'0 0.0
2017-Aug-08 22:30N 46°54' W 002°08'0 0.0
2017-Aug-08 22:00N 46°54' W 002°08'0 0.0
2017-Aug-08 21:30N 46°54' W 002°08'0 0.0
2017-Aug-08 21:00N 46°54' W 002°08'0 0.0
2017-Aug-08 20:30N 46°54' W 002°08'0 0.0
2017-Aug-08 19:54N 46°54' W 002°08'0 0.0
2017-Aug-08 19:30N 46°54' W 002°08'0 0.0
2017-Aug-08 18:57N 46°54' W 002°08'0 0.0
2017-Aug-08 18:24N 46°54' W 002°08'0 0.0
2017-Aug-08 17:51N 46°54' W 002°08'0 0.0
2017-Aug-08 17:27N 46°54' W 002°08'0 0.0
2017-Aug-08 16:54N 46°54' W 002°08'0 0.0
2017-Aug-08 16:06N 46°54' W 002°08'0 0.0
2017-Aug-08 15:57N 46°54' W 002°08'0 0.0
2017-Aug-08 15:21N 46°54' W 002°08'0 0.0
2017-Aug-08 14:51N 46°54' W 002°08'1 3.8
2017-Aug-08 14:29N 46°54' W 002°10'  

Dump ship's entire track history